Time;durP1;ratioP1;P1;durP2;ratioP2;P2;SDS_P1;SDS_P2;PMS_P1;PMS_P2;Temp;Humidity;BMP_temperature;BMP_pressure;BME280_temperature;BME280_humidity;BME280_pressure;Samples;Min_cycle;Max_cycle;Signal;HPM_P1;HPM_P2
2022/12/08 00:01:24;;;;;;;11.77;10.80;;;21.50;53.10;;;;;;5012718;28;20485;-56
2022/12/08 00:03:52;;;;;;;12.10;11.13;;;21.50;53.10;;;;;;5012361;28;20537;-57
2022/12/08 00:09:23;;;;;;;11.37;10.57;;;21.50;53.20;;;;;;5012764;28;20912;-58
2022/12/08 00:11:57;;;;;;;10.60;9.90;;;21.40;53.20;;;;;;5012389;28;20886;-56
2022/12/08 00:14:26;;;;;;;11.13;10.33;;;21.40;53.20;;;;;;5012344;28;20548;-54
2022/12/08 00:16:54;;;;;;;11.47;10.77;;;21.40;53.20;;;;;;5012513;28;20489;-55
2022/12/08 00:19:21;;;;;;;10.80;10.10;;;21.40;53.20;;;;;;5012711;28;20991;-52
2022/12/08 00:21:48;;;;;;;10.70;9.87;;;21.40;53.20;;;;;;5012189;28;20478;-55
2022/12/08 00:24:18;;;;;;;11.03;10.33;;;21.30;53.20;;;;;;5013296;28;20470;-52
2022/12/08 00:26:45;;;;;;;11.23;10.53;;;21.30;53.20;;;;;;5013012;28;20938;-54
2022/12/08 00:29:13;;;;;;;11.30;10.50;;;21.30;53.30;;;;;;5012893;28;20509;-50
2022/12/08 00:31:39;;;;;;;10.87;9.90;;;21.30;53.30;;;;;;5012142;28;20444;-55
2022/12/08 00:34:07;;;;;;;10.03;9.30;;;21.30;53.30;;;;;;5012548;28;20472;-56
2022/12/08 00:36:34;;;;;;;10.13;9.47;;;21.30;53.30;;;;;;5012410;28;20548;-50
2022/12/08 00:39:01;;;;;;;10.33;9.53;;;21.30;53.40;;;;;;5012324;28;20450;-59
2022/12/08 00:44:15;;;;;;;10.40;9.70;;;21.30;53.40;;;;;;5012065;28;20480;-57
2022/12/08 00:46:42;;;;;;;9.47;8.97;;;21.30;53.30;;;;;;5012119;28;20529;-50
2022/12/08 00:49:09;;;;;;;9.60;9.00;;;21.30;53.40;;;;;;5011529;28;20474;-55
2022/12/08 00:51:37;;;;;;;9.93;9.33;;;21.30;53.40;;;;;;5012379;28;20525;-51
2022/12/08 00:54:04;;;;;;;8.53;8.13;;;21.30;53.40;;;;;;5013171;28;20876;-56
2022/12/08 00:56:32;;;;;;;9.53;9.00;;;21.30;53.40;;;;;;5012206;28;20478;-53
2022/12/08 00:59:00;;;;;;;10.47;9.87;;;21.30;53.40;;;;;;5012327;28;20521;-52
2022/12/08 01:01:27;;;;;;;9.77;9.27;;;21.30;53.30;;;;;;5012499;28;20909;-53
2022/12/08 01:03:54;;;;;;;9.90;9.30;;;21.30;53.30;;;;;;5012768;28;20470;-54
2022/12/08 01:06:21;;;;;;;9.20;8.70;;;21.30;53.30;;;;;;5013079;28;20828;-58
2022/12/08 01:08:48;;;;;;;9.93;9.33;;;21.30;53.30;;;;;;5011530;28;20448;-50
2022/12/08 01:11:17;;;;;;;9.20;8.70;;;21.30;53.30;;;;;;5012174;28;20820;-57
2022/12/08 01:13:47;;;;;;;9.47;8.97;;;21.30;53.30;;;;;;5011854;28;20533;-58
2022/12/08 01:16:19;;;;;;;9.60;8.83;;;21.30;53.30;;;;;;5012128;28;20481;-52
2022/12/08 01:18:46;;;;;;;9.20;8.70;;;21.30;53.30;;;;;;5011747;28;20813;-50
2022/12/08 01:21:13;;;;;;;8.73;8.37;;;21.20;53.20;;;;;;5012229;28;21271;-54
2022/12/08 01:23:41;;;;;;;8.47;7.97;;;21.20;53.20;;;;;;5012003;28;20486;-58
2022/12/08 01:26:10;;;;;;;10.30;9.70;;;21.20;53.20;;;;;;5011785;28;20541;-57
2022/12/08 01:28:37;;;;;;;8.80;8.40;;;21.20;53.20;;;;;;5012541;28;20441;-55
2022/12/08 01:31:10;;;;;;;8.67;8.17;;;21.20;53.30;;;;;;5011574;28;20525;-52
2022/12/08 01:33:37;;;;;;;7.80;7.40;;;21.20;53.30;;;;;;5011196;28;20449;-56
2022/12/08 01:36:05;;;;;;;9.27;8.73;;;21.20;53.30;;;;;;5012569;28;20450;-56
2022/12/08 01:38:32;;;;;;;8.03;7.63;;;21.20;53.30;;;;;;5012495;28;20681;-54
2022/12/08 01:40:59;;;;;;;8.67;8.27;;;21.20;53.30;;;;;;5011327;28;20528;-57
2022/12/08 01:43:26;;;;;;;8.40;8.00;;;21.20;53.40;;;;;;5012031;28;20482;-50
2022/12/08 01:45:54;;;;;;;8.90;8.50;;;21.20;53.40;;;;;;5011855;28;20478;-53
2022/12/08 01:48:27;;;;;;;8.20;7.80;;;21.20;53.40;;;;;;5011418;28;20459;-53
2022/12/08 01:50:55;;;;;;;8.90;8.50;;;21.10;53.40;;;;;;5011185;28;20453;-49
2022/12/08 01:53:26;;;;;;;8.40;7.90;;;21.10;53.50;;;;;;5011429;28;20446;-51
2022/12/08 01:55:58;;;;;;;8.90;8.40;;;21.10;53.50;;;;;;5011237;28;20501;-53
2022/12/08 01:58:29;;;;;;;8.23;7.77;;;21.10;53.60;;;;;;5011604;28;20922;-56
2022/12/08 02:00:56;;;;;;;8.10;7.70;;;21.10;53.60;;;;;;5011494;28;20456;-57
2022/12/08 02:03:29;;;;;;;8.00;7.60;;;21.10;53.70;;;;;;5014785;28;20482;-50
2022/12/08 02:05:56;;;;;;;8.23;7.83;;;21.10;53.70;;;;;;5014581;28;20470;-56
2022/12/08 02:08:24;;;;;;;9.13;8.60;;;21.10;53.70;;;;;;5014944;28;20441;-51
2022/12/08 02:10:52;;;;;;;8.27;7.87;;;21.00;53.70;;;;;;5014808;28;20452;-52
2022/12/08 02:13:21;;;;;;;8.43;7.83;;;21.00;53.70;;;;;;5014933;28;20449;-55
2022/12/08 02:15:58;;;;;;;8.13;7.83;;;21.00;53.70;;;;;;5014282;28;20472;-52
2022/12/08 02:18:49;;;;;;;8.73;8.33;;;21.00;53.70;;;;;;5015281;28;20881;-50
2022/12/08 02:21:21;;;;;;;8.30;7.80;;;21.00;53.70;;;;;;5014658;28;20446;-52
2022/12/08 02:23:55;;;;;;;8.17;7.77;;;21.00;53.70;;;;;;5014212;28;20487;-55
2022/12/08 02:27:00;;;;;;;8.30;7.87;;;21.00;53.80;;;;;;5014478;28;20449;-54
2022/12/08 02:30:13;;;;;;;8.17;7.77;;;21.00;53.80;;;;;;5014374;28;20526;-50
2022/12/08 02:33:16;;;;;;;7.43;7.03;;;21.00;53.80;;;;;;5014502;28;20525;-55
2022/12/08 02:35:53;;;;;;;7.50;7.20;;;20.90;53.70;;;;;;5014185;28;20461;-51
2022/12/08 02:38:30;;;;;;;7.50;7.10;;;21.00;53.80;;;;;;5014397;28;20442;-50
2022/12/08 02:41:05;;;;;;;7.87;7.47;;;20.90;53.80;;;;;;5014081;28;20784;-54
2022/12/08 02:43:38;;;;;;;6.80;6.50;;;20.90;53.80;;;;;;5013895;28;20561;-50
2022/12/08 02:46:10;;;;;;;7.37;6.87;;;20.90;53.80;;;;;;5014644;28;20449;-58
2022/12/08 02:48:37;;;;;;;6.87;6.57;;;20.90;53.80;;;;;;5014687;28;20469;-52
2022/12/08 02:51:06;;;;;;;6.97;6.67;;;20.90;53.80;;;;;;5014027;28;21019;-52
2022/12/08 02:53:35;;;;;;;6.90;6.60;;;20.90;53.80;;;;;;5014041;28;20439;-57
2022/12/08 02:56:08;;;;;;;6.90;6.60;;;20.90;53.80;;;;;;5014867;28;20469;-52
2022/12/08 02:59:03;;;;;;;7.83;7.53;;;20.90;53.80;;;;;;5014119;28;20448;-55
2022/12/08 03:01:48;;;;;;;8.07;7.77;;;20.90;53.80;;;;;;5013915;28;20486;-50
2022/12/08 03:04:24;;;;;;;8.03;7.63;;;20.90;53.80;;;;;;5013524;28;20588;-51
2022/12/08 03:07:02;;;;;;;7.37;7.07;;;20.90;53.80;;;;;;5013801;28;20449;-49
2022/12/08 03:09:37;;;;;;;8.63;8.27;;;20.90;53.80;;;;;;5013560;28;20456;-57
2022/12/08 03:12:13;;;;;;;7.57;7.17;;;20.90;53.80;;;;;;5013026;28;20437;-55
2022/12/08 03:14:43;;;;;;;6.77;6.47;;;20.90;53.80;;;;;;4993389;28;20467;-54
2022/12/08 03:17:11;;;;;;;7.23;6.93;;;20.90;53.80;;;;;;4997809;28;20870;-56
2022/12/08 03:19:41;;;;;;;7.50;7.00;;;20.90;53.80;;;;;;5013865;28;20438;-54
2022/12/08 03:22:11;;;;;;;7.13;6.73;;;20.90;53.80;;;;;;5013343;28;20480;-54
2022/12/08 03:24:40;;;;;;;7.73;7.33;;;20.90;53.80;;;;;;5014612;28;20462;-58
2022/12/08 03:27:09;;;;;;;7.50;7.10;;;20.90;53.80;;;;;;5013410;28;20934;-52
2022/12/08 03:29:36;;;;;;;7.60;7.20;;;20.90;53.80;;;;;;5013021;28;20834;-50
2022/12/08 03:32:09;;;;;;;7.90;7.50;;;20.90;53.80;;;;;;5013123;28;20929;-58
2022/12/08 03:34:36;;;;;;;7.03;6.83;;;20.90;53.80;;;;;;4993682;28;20538;-57
2022/12/08 03:37:04;;;;;;;7.13;6.90;;;20.90;53.80;;;;;;4993707;28;20450;-53
2022/12/08 03:39:32;;;;;;;7.27;6.97;;;20.90;53.80;;;;;;4993806;28;20544;-50
2022/12/08 03:41:59;;;;;;;7.27;6.90;;;20.90;53.80;;;;;;4993609;28;20490;-51
2022/12/08 03:44:26;;;;;;;7.00;6.80;;;20.90;53.80;;;;;;5012194;28;20565;-55
2022/12/08 03:46:53;;;;;;;7.93;7.53;;;20.90;53.80;;;;;;5013262;28;20452;-57
2022/12/08 03:49:19;;;;;;;7.13;6.83;;;20.90;53.80;;;;;;5013172;28;20441;-57
2022/12/08 03:51:46;;;;;;;6.60;6.30;;;20.90;53.80;;;;;;5013118;28;20533;-56
2022/12/08 03:54:13;;;;;;;7.57;7.27;;;20.90;53.80;;;;;;5012368;28;20472;-53
2022/12/08 03:56:42;;;;;;;7.30;6.80;;;20.90;53.80;;;;;;5013154;28;20885;-54
2022/12/08 03:59:10;;;;;;;7.00;6.70;;;20.90;53.80;;;;;;5013428;28;20477;-57
2022/12/08 04:01:37;;;;;;;6.10;5.90;;;20.90;53.80;;;;;;5012807;28;20846;-53
2022/12/08 04:04:04;;;;;;;6.60;6.30;;;20.90;53.80;;;;;;5012389;28;20572;-56
2022/12/08 04:06:31;;;;;;;6.93;6.63;;;20.90;53.80;;;;;;5012931;28;20532;-50
2022/12/08 04:08:57;;;;;;;7.87;7.57;;;20.90;54.40;;;;;;5012566;28;20945;-50
2022/12/08 04:11:24;;;;;;;7.10;6.80;;;20.90;53.80;;;;;;5012648;28;20478;-54
2022/12/08 04:13:52;;;;;;;6.27;6.07;;;20.90;53.80;;;;;;5012256;28;20441;-56
2022/12/08 04:16:21;;;;;;;6.30;6.10;;;20.90;53.80;;;;;;5012351;28;20446;-50
2022/12/08 04:18:48;;;;;;;6.70;6.40;;;20.90;53.80;;;;;;5012792;28;20445;-51
2022/12/08 04:21:15;;;;;;;6.20;6.00;;;20.90;53.80;;;;;;5012564;28;20460;-58
2022/12/08 04:23:42;;;;;;;6.27;5.97;;;20.90;53.80;;;;;;5012680;28;21004;-52
2022/12/08 04:26:09;;;;;;;6.40;6.20;;;20.90;53.80;;;;;;5012221;28;20521;-56
2022/12/08 04:28:36;;;;;;;6.73;6.53;;;20.90;53.80;;;;;;5012172;28;20537;-51
2022/12/08 04:31:05;;;;;;;6.83;6.53;;;20.90;54.30;;;;;;5011990;28;20446;-54
2022/12/08 04:33:34;;;;;;;6.83;6.63;;;20.90;53.80;;;;;;5012205;28;20488;-49
2022/12/08 04:36:01;;;;;;;6.87;6.47;;;20.90;53.90;;;;;;5011909;28;20465;-55
2022/12/08 04:38:28;;;;;;;6.37;6.17;;;20.90;53.80;;;;;;5012346;28;20472;-50
2022/12/08 04:40:55;;;;;;;6.33;6.13;;;20.80;53.70;;;;;;5012037;28;20460;-54
2022/12/08 04:43:21;;;;;;;6.83;6.53;;;20.90;53.70;;;;;;5011973;28;20484;-55
2022/12/08 04:45:48;;;;;;;8.03;7.73;;;20.90;53.70;;;;;;5011610;28;20477;-58
2022/12/08 04:48:17;;;;;;;6.53;6.23;;;20.90;53.60;;;;;;5012969;28;20497;-54
2022/12/08 04:50:45;;;;;;;7.13;6.83;;;20.90;53.60;;;;;;5012091;28;20444;-57
2022/12/08 04:53:13;;;;;;;6.53;6.33;;;20.90;53.60;;;;;;5013882;28;20541;-50
2022/12/08 04:55:42;;;;;;;7.07;6.77;;;20.90;53.50;;;;;;5012437;28;20472;-53
2022/12/08 04:58:12;;;;;;;6.27;6.00;;;20.90;53.50;;;;;;5012236;28;20537;-57
2022/12/08 05:00:39;;;;;;;6.80;6.60;;;20.90;53.50;;;;;;5011725;28;20442;-51
2022/12/08 05:03:06;;;;;;;6.27;6.03;;;20.90;53.50;;;;;;5012283;28;20917;-52
2022/12/08 05:05:34;;;;;;;7.20;7.00;;;20.90;53.50;;;;;;5011362;28;20474;-51
2022/12/08 05:08:01;;;;;;;6.60;6.40;;;20.90;53.50;;;;;;5011986;28;20816;-50
2022/12/08 05:10:28;;;;;;;7.40;7.10;;;20.90;53.50;;;;;;5011593;28;20536;-54
2022/12/08 05:12:54;;;;;;;6.20;6.10;;;20.90;53.30;;;;;;5011730;28;20442;-54
2022/12/08 05:15:21;;;;;;;6.50;6.30;;;20.90;53.30;;;;;;5011522;28;20992;-51
2022/12/08 05:17:48;;;;;;;7.47;7.20;;;20.90;53.20;;;;;;5012077;28;20450;-56
2022/12/08 05:20:15;;;;;;;6.87;6.67;;;20.90;53.20;;;;;;5011544;28;20453;-57
2022/12/08 05:22:44;;;;;;;6.30;6.20;;;20.90;53.10;;;;;;5011764;28;20532;-54
2022/12/08 05:25:11;;;;;;;7.20;7.00;;;20.90;53.00;;;;;;5011449;28;20493;-54
2022/12/08 05:27:38;;;;;;;6.90;6.70;;;20.90;53.00;;;;;;5011398;28;20854;-54
2022/12/08 05:30:05;;;;;;;6.37;6.17;;;20.80;52.90;;;;;;5012088;28;20438;-55
2022/12/08 05:32:32;;;;;;;6.20;5.97;;;20.80;52.80;;;;;;5011809;28;20453;-53
2022/12/08 05:34:59;;;;;;;7.00;6.80;;;20.80;52.80;;;;;;5011317;28;20462;-55
2022/12/08 05:37:26;;;;;;;6.00;5.80;;;20.80;52.80;;;;;;5014658;28;20450;-53
2022/12/08 05:39:54;;;;;;;6.70;6.50;;;20.80;52.80;;;;;;5015266;28;20446;-57
2022/12/08 05:42:21;;;;;;;7.37;7.07;;;20.80;52.80;;;;;;5015481;28;20454;-52
2022/12/08 05:44:48;;;;;;;7.30;7.10;;;20.80;52.70;;;;;;5014894;28;20572;-55
2022/12/08 05:47:15;;;;;;;6.50;6.30;;;20.80;52.70;;;;;;5015438;28;20541;-54
2022/12/08 05:49:41;;;;;;;7.10;6.93;;;20.80;52.70;;;;;;5015034;28;20798;-52
2022/12/08 05:52:08;;;;;;;7.30;7.10;;;20.80;52.70;;;;;;5016908;28;20446;-54
2022/12/08 05:54:35;;;;;;;7.67;7.47;;;20.80;52.60;;;;;;5015133;28;20472;-57
2022/12/08 05:57:03;;;;;;;7.80;7.50;;;20.80;52.60;;;;;;5014817;28;20532;-53
2022/12/08 05:59:30;;;;;;;7.30;7.00;;;20.80;52.60;;;;;;5015183;28;20532;-50
2022/12/08 06:01:57;;;;;;;6.87;6.77;;;20.80;52.50;;;;;;5015006;28;20446;-54
2022/12/08 06:04:24;;;;;;;7.90;7.60;;;20.80;52.60;;;;;;5015303;28;21023;-55
2022/12/08 06:06:51;;;;;;;7.70;7.50;;;20.70;52.40;;;;;;5015169;28;20450;-55
2022/12/08 06:09:18;;;;;;;6.83;6.63;;;20.70;52.40;;;;;;5014609;28;20460;-51
2022/12/08 06:11:46;;;;;;;7.37;7.17;;;20.70;52.50;;;;;;5016020;28;20441;-51
2022/12/08 06:14:14;;;;;;;7.47;7.20;;;20.70;52.60;;;;;;5015223;28;20478;-53
2022/12/08 06:16:41;;;;;;;7.80;7.60;;;20.70;52.60;;;;;;5015059;28;20466;-52
2022/12/08 06:19:08;;;;;;;7.13;6.93;;;20.70;52.60;;;;;;5014997;28;20456;-51
2022/12/08 06:21:34;;;;;;;8.03;7.73;;;20.70;52.60;;;;;;5014618;28;20446;-49
2022/12/08 06:24:01;;;;;;;8.13;7.83;;;20.70;52.50;;;;;;5014731;28;20511;-51
2022/12/08 06:26:28;;;;;;;7.83;7.57;;;20.70;52.50;;;;;;5014873;28;20882;-53
2022/12/08 06:28:55;;;;;;;7.00;6.80;;;20.70;52.50;;;;;;5014163;28;20453;-56
2022/12/08 06:31:25;;;;;;;7.13;6.83;;;20.70;52.50;;;;;;5014383;28;20540;-50
2022/12/08 06:33:53;;;;;;;6.97;6.80;;;20.70;52.40;;;;;;5014463;28;20450;-56
2022/12/08 06:36:22;;;;;;;6.97;6.87;;;20.70;52.40;;;;;;5014012;28;20454;-55
2022/12/08 06:38:50;;;;;;;7.43;7.23;;;20.70;52.40;;;;;;5014833;28;20454;-56
2022/12/08 06:41:17;;;;;;;7.30;7.10;;;20.70;52.50;;;;;;5014846;28;20448;-52
2022/12/08 06:43:45;;;;;;;7.77;7.27;;;20.70;52.60;;;;;;5013982;28;20572;-56
2022/12/08 06:46:14;;;;;;;7.03;6.83;;;20.70;52.80;;;;;;5014032;28;20533;-56
2022/12/08 06:48:42;;;;;;;9.73;9.13;;;20.70;52.80;;;;;;5013924;28;20953;-56
2022/12/08 06:51:11;;;;;;;7.20;7.00;;;20.70;52.90;;;;;;5014146;28;20537;-49
2022/12/08 06:53:38;;;;;;;6.87;6.67;;;20.70;52.90;;;;;;5013748;28;20529;-55
2022/12/08 06:56:06;;;;;;;7.57;7.27;;;20.70;52.90;;;;;;5013627;28;20533;-52
2022/12/08 06:58:34;;;;;;;7.20;6.97;;;20.70;53.00;;;;;;5013982;28;20968;-53
2022/12/08 07:01:05;;;;;;;7.07;6.87;;;20.60;52.90;;;;;;5015542;28;20438;-53
2022/12/08 07:03:31;;;;;;;7.43;7.23;;;20.70;52.90;;;;;;5014922;28;20564;-56
2022/12/08 07:06:00;;;;;;;7.23;7.03;;;20.70;52.90;;;;;;5013260;28;20448;-50
2022/12/08 07:08:26;;;;;;;7.43;7.23;;;20.70;52.80;;;;;;5013350;28;20821;-57
2022/12/08 07:10:53;;;;;;;7.43;7.13;;;20.70;52.80;;;;;;5013629;28;20442;-55
2022/12/08 07:13:20;;;;;;;7.60;7.33;;;20.70;53.20;;;;;;5013648;28;20517;-57
2022/12/08 07:15:47;;;;;;;7.73;7.33;;;20.70;53.10;;;;;;5013532;28;20462;-52
2022/12/08 07:18:14;;;;;;;7.23;7.03;;;20.70;53.00;;;;;;5013052;28;20873;-53
2022/12/08 07:20:41;;;;;;;7.53;7.30;;;20.70;52.90;;;;;;5013171;28;20541;-50
2022/12/08 07:23:09;;;;;;;7.33;7.07;;;20.70;52.90;;;;;;5014010;28;20465;-53
2022/12/08 07:25:35;;;;;;;7.90;7.60;;;20.70;52.90;;;;;;5013761;28;20470;-58
2022/12/08 07:28:08;;;;;;;7.93;7.63;;;20.70;53.00;;;;;;5011263;28;20450;-50
2022/12/08 07:30:35;;;;;;;7.70;7.50;;;20.70;53.20;;;;;;5013409;28;20453;-54
2022/12/08 07:33:03;;;;;;;8.90;8.40;;;20.70;53.40;;;;;;5013725;28;20949;-50
2022/12/08 07:35:30;;;;;;;9.07;8.40;;;20.70;53.80;;;;;;5013720;28;20470;-52
2022/12/08 07:37:57;;;;;;;8.87;8.20;;;20.70;56.40;;;;;;5013040;28;20825;-52
2022/12/08 07:40:25;;;;;;;9.20;8.50;;;20.80;57.50;;;;;;5012830;28;20445;-56
2022/12/08 07:42:52;;;;;;;9.17;8.43;;;20.80;57.10;;;;;;5012741;28;20452;-51
2022/12/08 07:45:19;;;;;;;9.40;8.60;;;20.80;56.70;;;;;;5074015;23;20590;-52
2022/12/08 07:47:46;;;;;;;8.83;8.23;;;20.80;56.50;;;;;;5033054;28;20434;-55
2022/12/08 07:50:13;;;;;;;7.90;7.53;;;20.80;57.20;;;;;;5032437;28;20452;-55
2022/12/08 07:52:39;;;;;;;9.97;9.33;;;20.80;57.30;;;;;;5032747;28;20445;-56
2022/12/08 07:55:07;;;;;;;7.87;7.50;;;20.80;57.00;;;;;;5032428;28;20453;-55
2022/12/08 07:57:35;;;;;;;9.10;8.40;;;20.80;56.60;;;;;;5032425;28;20447;-57
2022/12/08 08:00:03;;;;;;;8.83;8.23;;;20.70;56.20;;;;;;5031663;28;20433;-55
2022/12/08 08:02:30;;;;;;;8.30;7.80;;;20.70;55.90;;;;;;5032582;28;20475;-58
2022/12/08 08:04:57;;;;;;;8.33;7.93;;;20.70;55.70;;;;;;5032196;28;20999;-55
2022/12/08 08:07:24;;;;;;;8.43;7.93;;;20.70;55.40;;;;;;5032374;28;20445;-57
2022/12/08 08:09:50;;;;;;;10.13;9.53;;;20.70;55.20;;;;;;5032090;28;20813;-57
2022/12/08 08:12:17;;;;;;;8.20;7.77;;;20.70;55.00;;;;;;5032172;28;20445;-54
2022/12/08 08:14:45;;;;;;;8.37;7.73;;;20.70;54.80;;;;;;5032157;28;20778;-55
2022/12/08 08:17:12;;;;;;;8.80;8.30;;;20.70;54.60;;;;;;5032155;28;20544;-57
2022/12/08 08:19:39;;;;;;;8.23;7.80;;;20.70;54.40;;;;;;5031858;28;20528;-54
2022/12/08 08:22:06;;;;;;;7.60;7.30;;;20.70;54.30;;;;;;5032066;28;20448;-54
2022/12/08 08:24:32;;;;;;;8.10;7.60;;;20.70;54.20;;;;;;5031804;28;20491;-58
2022/12/08 08:26:59;;;;;;;8.60;8.00;;;20.60;54.00;;;;;;5032059;28;20445;-56
2022/12/08 08:29:26;;;;;;;8.97;8.40;;;20.60;53.90;;;;;;5031879;28;20527;-58
2022/12/08 08:31:54;;;;;;;7.63;7.30;;;20.60;53.80;;;;;;5031937;28;20447;-57
2022/12/08 08:34:21;;;;;;;7.40;7.10;;;20.60;53.70;;;;;;5031911;28;20816;-58
2022/12/08 08:36:48;;;;;;;8.17;7.77;;;20.60;53.60;;;;;;5031896;28;20577;-56
2022/12/08 08:39:15;;;;;;;8.00;7.70;;;20.60;53.50;;;;;;5031683;28;20441;-54
2022/12/08 08:41:41;;;;;;;8.27;7.87;;;20.60;53.40;;;;;;5031846;28;20583;-57
2022/12/08 08:44:08;;;;;;;7.03;6.73;;;20.60;53.90;;;;;;5031610;28;20487;-53
2022/12/08 08:46:35;;;;;;;7.63;7.23;;;20.60;53.30;;;;;;5031782;28;21272;-55
2022/12/08 08:49:03;;;;;;;7.57;7.23;;;20.70;53.20;;;;;;5031716;28;20547;-57
2022/12/08 08:51:30;;;;;;;8.07;7.43;;;20.70;53.10;;;;;;5031963;28;20947;-59
2022/12/08 08:53:57;;;;;;;7.80;7.50;;;20.70;53.00;;;;;;5031888;28;20529;-55
2022/12/08 08:56:24;;;;;;;7.80;7.50;;;20.70;52.90;;;;;;5031806;28;20523;-58
2022/12/08 08:58:52;;;;;;;7.10;6.90;;;20.70;52.80;;;;;;5031774;28;20819;-57
2022/12/08 09:01:21;;;;;;;7.43;7.17;;;20.70;52.70;;;;;;5031582;28;20451;-56
2022/12/08 09:03:49;;;;;;;7.50;7.20;;;20.70;52.60;;;;;;5031640;28;20471;-57
2022/12/08 09:06:17;;;;;;;7.67;7.30;;;20.80;52.60;;;;;;5031366;28;20525;-58
2022/12/08 09:08:45;;;;;;;7.30;7.10;;;20.80;52.50;;;;;;5031489;28;20445;-56
2022/12/08 09:11:12;;;;;;;7.27;6.97;;;20.80;52.40;;;;;;5034187;28;20535;-54
2022/12/08 09:13:39;;;;;;;7.50;7.00;;;20.80;52.40;;;;;;5035699;28;20444;-56
2022/12/08 09:16:08;;;;;;;7.10;6.90;;;20.80;52.30;;;;;;5035664;28;20828;-56
2022/12/08 09:18:35;;;;;;;7.27;7.07;;;20.80;52.30;;;;;;5035641;28;20563;-57
2022/12/08 09:21:05;;;;;;;6.83;6.73;;;20.80;52.20;;;;;;5035133;28;20454;-57
2022/12/08 09:23:33;;;;;;;7.10;6.90;;;20.80;52.10;;;;;;5035415;28;20445;-56
2022/12/08 09:26:00;;;;;;;9.57;9.10;;;20.80;52.10;;;;;;5035238;28;20496;-57
2022/12/08 09:28:26;;;;;;;7.27;7.07;;;20.80;52.00;;;;;;5035526;28;20536;-54
2022/12/08 09:30:53;;;;;;;7.63;7.43;;;20.70;51.90;;;;;;5035036;28;20963;-55
2022/12/08 09:33:20;;;;;;;8.03;7.73;;;20.70;51.90;;;;;;5035216;28;20449;-55
2022/12/08 09:35:47;;;;;;;7.37;6.87;;;20.70;51.80;;;;;;5035092;28;20460;-54
2022/12/08 09:38:14;;;;;;;7.40;7.10;;;20.70;52.30;;;;;;5035236;28;20524;-55
2022/12/08 09:40:48;;;;;;;7.33;6.93;;;20.70;51.70;;;;;;5034973;28;20440;-55
2022/12/08 09:43:31;;;;;;;7.70;7.40;;;20.70;52.30;;;;;;5035222;28;20602;-55
2022/12/08 09:45:59;;;;;;;6.97;6.77;;;20.70;51.70;;;;;;5034811;28;20571;-54
2022/12/08 09:48:31;;;;;;;7.40;7.10;;;20.70;51.70;;;;;;5035045;28;20636;-56
2022/12/08 09:50:59;;;;;;;7.00;6.80;;;20.60;51.60;;;;;;5034846;28;20459;-55
2022/12/08 09:53:28;;;;;;;7.53;7.23;;;20.60;51.60;;;;;;5034979;28;20451;-55
2022/12/08 09:56:00;;;;;;;8.40;7.70;;;20.60;51.60;;;;;;5034984;28;20457;-58
2022/12/08 09:58:35;;;;;;;7.63;7.30;;;20.60;51.60;;;;;;5034807;28;20539;-54
2022/12/08 10:01:02;;;;;;;7.10;6.90;;;20.60;51.50;;;;;;5034804;28;20440;-55
2022/12/08 10:03:30;;;;;;;7.23;7.03;;;20.60;51.50;;;;;;5034651;28;20535;-56
2022/12/08 10:06:04;;;;;;;7.17;6.97;;;20.60;51.40;;;;;;5034511;28;20851;-54
2022/12/08 10:08:41;;;;;;;7.87;7.57;;;20.60;51.40;;;;;;5034809;28;20484;-57
2022/12/08 10:11:15;;;;;;;7.23;6.93;;;20.70;51.40;;;;;;5034550;28;20451;-56
2022/12/08 10:13:51;;;;;;;7.00;6.80;;;20.70;51.40;;;;;;5034540;28;20532;-56
2022/12/08 10:16:27;;;;;;;7.20;6.90;;;20.70;51.30;;;;;;5034469;28;20523;-57
2022/12/08 10:19:01;;;;;;;6.80;6.60;;;20.80;51.30;;;;;;5034334;28;20446;-56
2022/12/08 10:21:31;;;;;;;7.13;6.93;;;20.80;51.30;;;;;;5033955;28;21003;-56
2022/12/08 10:24:04;;;;;;;6.87;6.70;;;20.80;51.20;;;;;;5034127;28;20511;-53
2022/12/08 10:26:32;;;;;;;8.27;7.97;;;20.80;51.10;;;;;;5034538;28;20437;-57
2022/12/08 10:29:01;;;;;;;7.80;7.60;;;20.90;51.10;;;;;;5034184;28;20444;-58
2022/12/08 10:31:30;;;;;;;7.50;7.30;;;20.90;51.10;;;;;;5034315;28;20476;-57
2022/12/08 10:33:59;;;;;;;7.10;6.90;;;20.90;51.00;;;;;;5034148;28;20437;-57
2022/12/08 10:36:45;;;;;;;7.70;7.50;;;20.80;50.80;;;;;;5034324;28;20843;-55
2022/12/08 10:39:31;;;;;;;7.77;7.57;;;20.80;50.80;;;;;;5034056;28;20472;-57
2022/12/08 10:42:06;;;;;;;8.10;7.80;;;20.90;50.80;;;;;;5034203;28;21118;-55
2022/12/08 10:44:33;;;;;;;7.63;7.43;;;20.80;50.70;;;;;;5033744;28;20567;-57
2022/12/08 10:47:00;;;;;;;6.90;6.60;;;20.80;50.60;;;;;;5033907;28;20950;-54
2022/12/08 10:49:31;;;;;;;7.60;7.30;;;20.80;50.60;;;;;;5033548;28;20451;-58
2022/12/08 10:51:58;;;;;;;7.07;6.87;;;20.80;50.60;;;;;;5033828;28;20456;-54
2022/12/08 10:54:28;;;;;;;7.53;7.33;;;20.80;50.60;;;;;;5033581;28;20527;-56
2022/12/08 10:56:56;;;;;;;6.73;6.53;;;20.80;50.50;;;;;;5033774;28;20442;-58
2022/12/08 10:59:25;;;;;;;7.70;7.30;;;20.80;50.50;;;;;;5033794;28;20532;-59
2022/12/08 11:01:54;;;;;;;6.70;6.60;;;20.80;50.50;;;;;;5033659;28;20453;-56
2022/12/08 11:04:23;;;;;;;6.63;6.43;;;20.70;50.40;;;;;;5033553;28;21122;-56
2022/12/08 11:06:51;;;;;;;6.73;6.57;;;20.70;50.30;;;;;;5033555;28;20479;-54
2022/12/08 11:09:36;;;;;;;7.27;6.97;;;20.70;50.40;;;;;;5033356;28;20445;-55
2022/12/08 11:12:08;;;;;;;7.57;7.37;;;20.70;50.40;;;;;;5033433;28;20532;-57
2022/12/08 11:14:48;;;;;;;7.50;7.10;;;20.70;50.40;;;;;;5033328;28;20500;-56
2022/12/08 11:17:17;;;;;;;6.90;6.70;;;20.70;50.50;;;;;;5033510;28;20444;-57
2022/12/08 11:19:46;;;;;;;6.80;6.60;;;20.60;50.40;;;;;;5033057;28;20445;-57
2022/12/08 11:22:24;;;;;;;7.57;7.30;;;20.60;50.40;;;;;;5033435;28;20449;-54
2022/12/08 11:25:03;;;;;;;7.30;6.80;;;20.60;50.50;;;;;;5033158;28;20847;-55
2022/12/08 11:27:30;;;;;;;6.30;6.10;;;20.50;50.40;;;;;;5033315;28;20456;-56
2022/12/08 11:29:58;;;;;;;7.00;6.80;;;20.50;50.40;;;;;;5033018;28;20537;-57
2022/12/08 11:32:25;;;;;;;6.80;6.60;;;20.50;50.50;;;;;;5033127;28;20467;-54
2022/12/08 11:34:56;;;;;;;6.73;6.63;;;20.50;50.50;;;;;;5032015;28;20552;-55
2022/12/08 11:37:28;;;;;;;6.43;6.33;;;20.50;50.50;;;;;;5033016;28;20527;-54
2022/12/08 11:39:58;;;;;;;7.00;6.80;;;20.50;50.50;;;;;;5033015;28;20877;-54
2022/12/08 11:42:30;;;;;;;6.77;6.57;;;20.50;50.50;;;;;;5032901;28;20476;-54
2022/12/08 11:45:03;;;;;;;6.63;6.53;;;20.50;50.50;;;;;;5032624;28;20481;-53
2022/12/08 11:47:34;;;;;;;6.87;6.77;;;20.60;51.00;;;;;;5032884;28;20437;-53
2022/12/08 11:50:15;;;;;;;6.50;6.33;;;20.60;50.50;;;;;;5032499;28;20561;-53
2022/12/08 11:52:46;;;;;;;7.60;7.40;;;20.70;50.50;;;;;;5032537;28;20488;-57
2022/12/08 11:55:27;;;;;;;7.13;6.97;;;20.70;50.50;;;;;;5032556;28;20465;-58
2022/12/08 11:57:57;;;;;;;7.30;7.10;;;20.80;50.40;;;;;;5032594;28;20449;-58
2022/12/08 12:00:25;;;;;;;6.87;6.67;;;20.80;50.40;;;;;;5032377;28;20544;-58
2022/12/08 12:02:58;;;;;;;6.47;6.27;;;20.80;50.30;;;;;;5032524;28;20532;-57
2022/12/08 12:05:31;;;;;;;7.00;6.80;;;20.80;50.20;;;;;;5032495;28;20571;-55
2022/12/08 12:08:09;;;;;;;7.17;6.87;;;20.90;50.20;;;;;;5032523;28;20480;-58
2022/12/08 12:10:51;;;;;;;6.90;6.70;;;20.90;50.20;;;;;;5032288;28;20861;-57
2022/12/08 12:13:34;;;;;;;7.00;6.80;;;20.90;50.10;;;;;;5032398;28;20532;-56
2022/12/08 12:16:50;;;;;;;6.90;6.80;;;20.90;50.10;;;;;;5032177;28;20547;-58
2022/12/08 12:19:19;;;;;;;7.63;7.33;;;20.90;50.10;;;;;;5032090;28;20531;-59
2022/12/08 12:21:50;;;;;;;7.17;6.97;;;20.90;50.00;;;;;;5032264;28;20529;-51
2022/12/08 12:24:19;;;;;;;7.00;6.80;;;20.90;50.00;;;;;;5031965;28;20471;-59
2022/12/08 12:26:56;;;;;;;7.20;7.00;;;20.90;50.00;;;;;;5031981;28;20484;-55
2022/12/08 12:29:25;;;;;;;6.77;6.67;;;20.90;50.00;;;;;;5031908;28;20536;-55
2022/12/08 12:31:57;;;;;;;6.93;6.77;;;20.90;50.00;;;;;;5031968;28;20441;-58
2022/12/08 12:34:28;;;;;;;7.00;6.83;;;20.90;49.90;;;;;;5031879;28;20474;-55
2022/12/08 12:36:58;;;;;;;7.40;7.20;;;20.90;49.90;;;;;;5032324;28;20445;-55
2022/12/08 12:39:29;;;;;;;6.50;6.40;;;20.90;49.90;;;;;;5031742;28;20536;-56
2022/12/08 12:41:58;;;;;;;6.80;6.53;;;20.90;49.90;;;;;;5031891;28;20984;-58
2022/12/08 12:44:38;;;;;;;7.30;7.10;;;20.90;49.90;;;;;;5031541;28;20563;-53
2022/12/08 12:47:11;;;;;;;7.00;6.80;;;20.90;49.80;;;;;;5031560;28;20482;-53
2022/12/08 12:49:52;;;;;;;7.30;7.10;;;20.90;49.80;;;;;;5031538;28;20446;-54
2022/12/08 12:52:38;;;;;;;6.30;6.20;;;20.80;49.80;;;;;;5031773;28;20528;-55
2022/12/08 12:55:44;;;;;;;7.53;7.33;;;20.80;49.80;;;;;;5031534;28;20488;-57
2022/12/08 12:58:22;;;;;;;7.53;7.13;;;20.80;49.80;;;;;;5025085;28;20539;-56
2022/12/08 13:00:49;;;;;;;6.20;6.10;;;20.80;49.80;;;;;;5031618;28;20440;-56
2022/12/08 13:03:18;;;;;;;6.90;6.70;;;20.70;49.80;;;;;;5031503;28;20445;-55
2022/12/08 13:05:50;;;;;;;6.90;6.70;;;20.70;49.80;;;;;;5031381;28;20572;-57